^^
Datos históricos de la estación: Murcia-Puente Tocinos
Diario Informe para Diciembre 1, 2019 Unidades:  Métrico    Ingés   Ambas
Diario Semanal Mensual Anual
  Máxima: Mínima: Promedio:
Temperatura: 20 °C 9.1 °C 14 °C
Punto de rocio: 11.9 °C 7.2 °C 9.5 °C
Humedad: 91% 47.6% 77%
Velocidad viento: 16.1km/h 2.2km/h 6.4km/h
Racha viento: 26.2km/h - -
Viento- - SSE
Presión: 1013.4 hPa 1008.0 hPa -
Precipitación: 0.0 mm    
 
 
Tabla de datos para Diciembre 1, 2019
Hora Temperatura Punto de rocio Presión Viento Velocidad viento Racha viento Humedad Intensidad lluvia(por hora) Nubes
00:04 13.3 °C 10.9 °C 1013.4 hPa OSO 4.1 km/h 8.4 km/h 85.6% 0.0 mm
00:09 13.2 °C 10.9 °C 1013.4 hPa SO 3.9 km/h 8 km/h 86% 0.0 mm
00:14 13.2 °C 11 °C 1013.3 hPa SO 4.7 km/h 8.4 km/h 86.6% 0.0 mm
00:19 13.2 °C 11.1 °C 1013.3 hPa SSO 5 km/h 8 km/h 87% 0.0 mm
00:24 13.2 °C 11 °C 1013.3 hPa Sur 5 km/h 9.5 km/h 86.9% 0.0 mm
00:29 13.1 °C 10.8 °C 1013.2 hPa SSE 5 km/h 10 km/h 86% 0.0 mm
00:34 12.9 °C 10.6 °C 1013.2 hPa SSE 5.6 km/h 11.1 km/h 86% 0.0 mm
00:39 12.7 °C 10.4 °C 1013.2 hPa Sur 5.8 km/h 11.3 km/h 86% 0.0 mm
00:44 12.5 °C 10.2 °C 1013.2 hPa Sur 7 km/h 11.9 km/h 86% 0.0 mm
00:49 12.3 °C 10.2 °C 1013.2 hPa Sur 7.6 km/h 11.9 km/h 87% 0.0 mm
00:54 12.2 °C 10.2 °C 1013.2 hPa SSE 7.1 km/h 11.3 km/h 87.3% 0.0 mm
00:59 12.2 °C 10.3 °C 1013.0 hPa Sur 6.9 km/h 13 km/h 88% 0.0 mm
01:04 12.2 °C 10.3 °C 1013.0 hPa Sur 7.4 km/h 13 km/h 88% 0.0 mm
01:09 12.2 °C 10.3 °C 1013.0 hPa Sur 7.6 km/h 13 km/h 88% 0.0 mm
01:14 12.2 °C 10.3 °C 1012.9 hPa SSO 6.3 km/h 12.9 km/h 88% 0.0 mm
01:19 12.2 °C 10.3 °C 1012.9 hPa SSO 5.8 km/h 10 km/h 88% 0.0 mm
01:24 12.2 °C 10.3 °C 1012.9 hPa SSO 5.8 km/h 9.7 km/h 88% 0.0 mm
01:29 12.2 °C 10.3 °C 1012.8 hPa SSO 5.8 km/h 13 km/h 88% 0.0 mm
01:34 12.2 °C 10.3 °C 1012.8 hPa SSO 6.2 km/h 12.9 km/h 88% 0.0 mm
01:39 12.2 °C 10.2 °C 1012.8 hPa SSO 6.5 km/h 9.7 km/h 87.7% 0.0 mm
01:44 12.2 °C 10.1 °C 1012.7 hPa SO 5.4 km/h 11.1 km/h 87% 0.0 mm
01:49 12.3 °C 10.2 °C 1012.7 hPa SSO 5 km/h 11.3 km/h 87% 0.0 mm
01:54 12.3 °C 10.2 °C 1012.7 hPa SO 6.4 km/h 11.9 km/h 87% 0.0 mm
01:59 12.4 °C 10.3 °C 1012.5 hPa SO 6.9 km/h 13 km/h 87% 0.0 mm
02:04 12.4 °C 10.4 °C 1012.5 hPa SSO 6.9 km/h 13 km/h 87.5% 0.0 mm
02:09 12.4 °C 10.3 °C 1012.5 hPa Sur 6.9 km/h 9.7 km/h 87% 0.0 mm
02:14 12.4 °C 10.3 °C 1012.3 hPa SO 5.4 km/h 9.7 km/h 87% 0.0 mm
02:19 12.3 °C 10.3 °C 1012.3 hPa SO 4.7 km/h 8 km/h 87% 0.0 mm
02:24 12.3 °C 10.2 °C 1012.3 hPa SSO 3.6 km/h 8 km/h 87% 0.0 mm
02:29 12.2 °C 10.1 °C 1012.2 hPa SSO 3.2 km/h 5.8 km/h 87% 0.0 mm
02:34 12.2 °C 10 °C 1012.2 hPa OSO 3 km/h 6.4 km/h 87% 0.0 mm
02:39 12 °C 10.1 °C 1012.2 hPa OSO 2.9 km/h 7.4 km/h 87.9% 0.0 mm
02:44 11.9 °C 10 °C 1012.2 hPa SO 3.1 km/h 8 km/h 88% 0.0 mm
02:49 11.8 °C 9.9 °C 1012.2 hPa OSO 3.2 km/h 7.4 km/h 88% 0.0 mm
02:54 11.7 °C 9.8 °C 1012.2 hPa Oeste 3.2 km/h 8 km/h 88% 0.0 mm
02:59 11.6 °C 9.6 °C 1012.2 hPa NNO 3.2 km/h 8 km/h 88% 0.0 mm
03:04 11.3 °C 9.5 °C 1012.2 hPa NO 3.7 km/h 8 km/h 88.3% 0.0 mm
03:09 11.3 °C 9.5 °C 1012.2 hPa NO 3.9 km/h 6.4 km/h 89% 0.0 mm
03:14 11.2 °C 9.4 °C 1012.0 hPa NO 2.7 km/h 3.9 km/h 89% 0.0 mm
03:19 11.1 °C 9.3 °C 1012.0 hPa NNO 2.2 km/h 13 km/h 88.6% 0.0 mm
03:24 10.7 °C 8.9 °C 1012.0 hPa SE 4.2 km/h 14.8 km/h 88.5% 0.0 mm
03:29 10.4 °C 8.8 °C 1012.0 hPa SSE 5 km/h 14.8 km/h 89.6% 0.0 mm
03:34 10.3 °C 8.8 °C 1012.0 hPa SSE 7.6 km/h 14.5 km/h 90.3% 0.0 mm
03:39 10.3 °C 8.9 °C 1012.0 hPa SSE 8.7 km/h 11.3 km/h 91% 0.0 mm
03:44 10.3 °C 8.9 °C 1011.9 hPa SSE 7.4 km/h 13 km/h 91% 0.0 mm
03:49 10.3 °C 8.9 °C 1011.9 hPa SSE 6.9 km/h 13.7 km/h 91% 0.0 mm
03:54 10.3 °C 8.9 °C 1011.9 hPa SSE 8.2 km/h 14.5 km/h 91% 0.0 mm
03:59 10.3 °C 8.9 °C 1011.7 hPa SSE 8.7 km/h 13 km/h 91% 0.0 mm
04:04 10.3 °C 8.9 °C 1011.7 hPa SSO 7.4 km/h 13 km/h 91% 0.0 mm
04:09 10.4 °C 9 °C 1011.8 hPa SO 6.9 km/h 12.9 km/h 91% 0.0 mm
04:14 10.6 °C 9.2 °C 1011.8 hPa SO 6.1 km/h 9.3 km/h 91% 0.0 mm
04:19 10.8 °C 9.3 °C 1011.8 hPa Oeste 5.8 km/h 9.7 km/h 90.8% 0.0 mm
04:24 10.8 °C 9.2 °C 1011.8 hPa ONO 5.8 km/h 9.7 km/h 90% 0.0 mm
04:29 10.7 °C 9.2 °C 1011.7 hPa Oeste 5.8 km/h 8 km/h 90% 0.0 mm
04:34 10.7 °C 9 °C 1011.7 hPa Oeste 4.4 km/h 8 km/h 89.4% 0.0 mm
04:39 10.7 °C 9 °C 1011.7 hPa Oeste 3.9 km/h 7.6 km/h 89.5% 0.0 mm
04:44 10.6 °C 8.9 °C 1011.6 hPa Oeste 4.4 km/h 10.3 km/h 89% 0.0 mm
04:49 10.6 °C 9 °C 1011.6 hPa SO 4.7 km/h 11.9 km/h 90% 0.0 mm
04:54 10.7 °C 9.1 °C 1011.6 hPa SSO 6.7 km/h 11.3 km/h 89.9% 0.0 mm
04:59 10.8 °C 9.1 °C 1011.4 hPa SSE 7.6 km/h 9.7 km/h 89% 0.0 mm
05:04 11 °C 9.2 °C 1011.4 hPa SSE 5.6 km/h 8 km/h 88.7% 0.0 mm
05:09 11 °C 9.1 °C 1011.4 hPa SSO 5 km/h 7.4 km/h 88% 0.0 mm
05:14 10.9 °C 9 °C 1011.3 hPa Sur 3.7 km/h 8 km/h 88% 0.0 mm
05:19 10.9 °C 8.8 °C 1011.3 hPa SE 3.2 km/h 8.4 km/h 87% 0.0 mm
05:24 10.6 °C 8.4 °C 1011.3 hPa SE 3.7 km/h 10 km/h 86.2% 0.0 mm
05:29 10.1 °C 7.9 °C 1011.3 hPa SSE 3.9 km/h 13 km/h 86.5% 0.0 mm
05:34 9.8 °C 7.9 °C 1011.3 hPa SSE 6.5 km/h 12.9 km/h 88% 0.0 mm
05:39 9.7 °C 8 °C 1011.3 hPa SE 7.6 km/h 11.3 km/h 89% 0.0 mm
05:44 9.7 °C 8.1 °C 1011.3 hPa SE 7.1 km/h 13 km/h 89.8% 0.0 mm
05:49 9.6 °C 8.1 °C 1011.3 hPa SSE 6.9 km/h 13 km/h 90% 0.0 mm
05:54 9.6 °C 8.1 °C 1011.3 hPa SSO 8 km/h 12.9 km/h 90% 0.0 mm
05:59 9.7 °C 8.1 °C 1011.2 hPa SSO 8.4 km/h 9.7 km/h 90% 0.0 mm
06:04 9.8 °C 8.3 °C 1011.2 hPa SO 6.5 km/h 11.1 km/h 90% 0.0 mm
06:09 10 °C 8.3 °C 1011.2 hPa OSO 5.8 km/h 11.3 km/h 89.3% 0.0 mm
06:14 10.1 °C 8.3 °C 1011.2 hPa OSO 6.3 km/h 9.7 km/h 89% 0.0 mm
06:19 10.2 °C 8.4 °C 1011.2 hPa SO 6.5 km/h 9.7 km/h 89% 0.0 mm
06:24 10.3 °C 8.5 °C 1011.2 hPa SO 5.4 km/h 8 km/h 88.7% 0.0 mm
06:29 10.3 °C 8.4 °C 1011.1 hPa OSO 5 km/h 8 km/h 88% 0.0 mm
06:34 10.3 °C 8.3 °C 1011.1 hPa OSO 4.8 km/h 9.3 km/h 87.3% 0.0 mm
06:39 10.3 °C 8.2 °C 1011.1 hPa SO 4.7 km/h 11.1 km/h 87% 0.0 mm
06:44 10.3 °C 8.2 °C 1011.1 hPa OSO 4.9 km/h 11.3 km/h 87% 0.0 mm
06:49 10.3 °C 8.2 °C 1011.1 hPa OSO 5 km/h 8 km/h 87% 0.0 mm
06:54 10.2 °C 8.1 °C 1011.1 hPa OSO 3.1 km/h 3.7 km/h 86.7% 0.0 mm
06:59 10.2 °C 8.1 °C 1011.1 hPa SE 2.2 km/h 7.4 km/h 86.9% 0.0 mm
07:04 10.1 °C 7.9 °C 1011.1 hPa SE 2.7 km/h 9.5 km/h 86% 0.0 mm
07:09 9.9 °C 7.6 °C 1011.2 hPa SE 2.9 km/h 9.7 km/h 86% 0.0 mm
07:14 9.8 °C 7.6 °C 1011.2 hPa Sur 4.2 km/h 8 km/h 86.5% 0.0 mm
07:19 9.7 °C 7.7 °C 1011.2 hPa SE 4.7 km/h 8 km/h 87% 0.0 mm
07:24 9.6 °C 7.6 °C 1011.2 hPa SE 4.1 km/h 8 km/h 87% 0.0 mm
07:29 9.6 °C 7.7 °C 1011.1 hPa SE 3.9 km/h 7.4 km/h 87.7% 0.0 mm
07:34 9.5 °C 7.5 °C 1011.1 hPa NO 3.4 km/h 8 km/h 87.1% 0.0 mm
07:39 9.4 °C 7.5 °C 1011.3 hPa NO 3.2 km/h 5.8 km/h 88% 0.0 mm
07:44 9.3 °C 7.4 °C 1011.3 hPa NO 3 km/h 6.4 km/h 88% 0.0 mm
07:49 9.3 °C 7.4 °C 1011.3 hPa NO 2.9 km/h 6.4 km/h 88% 0.0 mm
07:54 9.3 °C 7.5 °C 1011.6 hPa NO 2.9 km/h 4.7 km/h 88.5% 0.0 mm
07:59 9.3 °C 7.6 °C 1011.6 hPa NO 2.9 km/h 9.3 km/h 89% 0.0 mm
08:04 9.3 °C 7.4 °C 1011.6 hPa ESE 3.1 km/h 9.7 km/h 88% 0.0 mm
08:09 9.2 °C 7.3 °C 1011.6 hPa SE 3.2 km/h 13 km/h 88% 0.0 mm
08:14 9.1 °C 7.2 °C 1011.4 hPa SE 6.3 km/h 13 km/h 88% 0.0 mm
08:19 9.1 °C 7.2 °C 1011.4 hPa SSE 7.6 km/h 12.9 km/h 88% 0.0 mm
08:24 9.1 °C 7.2 °C 1011.4 hPa SSE 7.6 km/h 13 km/h 88% 0.0 mm
08:29 9.1 °C 7.2 °C 1011.4 hPa SO 7.6 km/h 12.9 km/h 88.2% 0.0 mm
08:34 9.2 °C 7.3 °C 1011.4 hPa SO 7.1 km/h 9.7 km/h 88.1% 0.0 mm
08:39 9.3 °C 7.4 °C 1011.6 hPa SSO 6.9 km/h 9.7 km/h 88% 0.0 mm
08:44 9.6 °C 7.7 °C 1011.6 hPa SSO 6.6 km/h 11.1 km/h 88% 0.0 mm
08:49 9.8 °C 7.8 °C 1011.6 hPa Sur 6.5 km/h 11.3 km/h 87.1% 0.0 mm
08:54 10.1 °C 7.9 °C 1011.6 hPa SSE 7.2 km/h 13 km/h 86.3% 0.0 mm
08:59 10.3 °C 7.9 °C 1011.6 hPa SSE 7.6 km/h 12.9 km/h 85.2% 0.0 mm
09:04 10.3 °C 7.9 °C 1011.6 hPa SSE 8.4 km/h 13.7 km/h 85% 0.0 mm
09:09 10.3 °C 7.9 °C 1011.6 hPa SSE 8.7 km/h 14.5 km/h 85% 0.0 mm
09:14 10.3 °C 7.9 °C 1011.6 hPa Sur 8.5 km/h 12.9 km/h 85% 0.0 mm
09:19 10.4 °C 8 °C 1011.6 hPa Sur 8.4 km/h 13 km/h 84.7% 0.0 mm
09:24 10.7 °C 8.1 °C 1011.6 hPa SSO 7.8 km/h 12.9 km/h 84% 0.0 mm
09:29 10.9 °C 8.3 °C 1011.6 hPa SSO 7.6 km/h 13.7 km/h 83.8% 0.0 mm
09:34 11.2 °C 8.4 °C 1011.6 hPa SSO 8.4 km/h 14.5 km/h 82.9% 0.0 mm
09:39 11.4 °C 8.5 °C 1011.7 hPa SSO 8.7 km/h 12.9 km/h 82% 0.0 mm
09:44 11.7 °C 8.6 °C 1011.7 hPa SO 7.9 km/h 11.3 km/h 81.3% 0.0 mm
09:49 11.8 °C 8.5 °C 1011.7 hPa SO 7.6 km/h 11.9 km/h 80% 0.0 mm
09:54 11.9 °C 8.6 °C 1011.8 hPa SO 7.6 km/h 11.3 km/h 80% 0.0 mm
09:59 12 °C 8.6 °C 1011.8 hPa SSE 7.6 km/h 11.9 km/h 79.4% 0.0 mm
10:04 12.3 °C 8.6 °C 1011.8 hPa SSO 7.1 km/h 11.3 km/h 78.3% 0.0 mm
10:09 12.6 °C 8.8 °C 1011.8 hPa SSO 6.9 km/h 11.1 km/h 77.6% 0.0 mm
10:14 12.8 °C 8.9 °C 1011.8 hPa Oeste 6.1 km/h 11.3 km/h 77% 0.0 mm
10:19 13 °C 8.9 °C 1011.8 hPa Oeste 5.8 km/h 5.6 km/h 76.4% 0.0 mm
10:24 13.2 °C 8.9 °C 1011.8 hPa SSO 3.9 km/h 7.4 km/h 75.2% 0.0 mm
10:29 13.2 °C 8.7 °C 1011.7 hPa Sur 3.2 km/h 9.3 km/h 74.2% 0.0 mm
10:34 13.3 °C 8.8 °C 1011.7 hPa SSO 4.5 km/h 9.7 km/h 74.1% 0.0 mm
10:39 13.4 °C 8.9 °C 1011.8 hPa Sur 5 km/h 9.7 km/h 73.9% 0.0 mm
10:44 13.7 °C 8.8 °C 1011.8 hPa Oeste 4.8 km/h 8.4 km/h 72.2% 0.0 mm
10:49 13.7 °C 9 °C 1011.8 hPa Oeste 4.7 km/h 9.3 km/h 73% 0.0 mm
10:54 13.8 °C 9.1 °C 1011.8 hPa Oeste 4.9 km/h 9.7 km/h 73% 0.0 mm
10:59 13.9 °C 9 °C 1011.8 hPa SO 5 km/h 8.4 km/h 72.4% 0.0 mm
11:04 14.1 °C 9.1 °C 1011.8 hPa SO 5 km/h 8 km/h 72% 0.0 mm
11:09 14.3 °C 9.2 °C 1011.8 hPa SSO 5 km/h 8 km/h 71.4% 0.0 mm
11:14 14.7 °C 9.3 °C 1011.8 hPa Sur 4.8 km/h 8 km/h 70.2% 0.0 mm
11:19 15 °C 9.3 °C 1011.8 hPa Sur 4.7 km/h 8 km/h 68.8% 0.0 mm
11:24 15.3 °C 9.4 °C 1011.8 hPa SSO 4.7 km/h 8 km/h 67.6% 0.0 mm
11:29 15.7 °C 9.2 °C 1011.6 hPa SO 4.7 km/h 9.3 km/h 65.4% 0.0 mm
11:34 15.8 °C 9.1 °C 1011.6 hPa SSO 4.9 km/h 9.7 km/h 64.1% 0.0 mm
11:39 16.2 °C 9.1 °C 1011.6 hPa SO 5 km/h 11.1 km/h 63% 0.0 mm
11:44 16.3 °C 9.1 °C 1011.6 hPa SO 5.6 km/h 14.8 km/h 62.4% 0.0 mm
11:49 16.4 °C 9.1 °C 1011.6 hPa SSO 5.8 km/h 14.5 km/h 62% 0.0 mm
11:54 16.4 °C 9.1 °C 1011.6 hPa Sur 7 km/h 14.8 km/h 62% 0.0 mm
11:59 16.6 °C 9.3 °C 1011.5 hPa SO 7.6 km/h 14.5 km/h 62% 0.0 mm
12:04 16.7 °C 9.4 °C 1011.5 hPa SSO 7.6 km/h 13 km/h 62% 0.0 mm
12:09 16.9 °C 9.4 °C 1011.5 hPa SSE 7.6 km/h 13 km/h 61.1% 0.0 mm
12:14 17.2 °C 9.5 °C 1011.2 hPa SSO 7.6 km/h 13 km/h 60.8% 0.0 mm
12:19 17.2 °C 9.4 °C 1011.2 hPa Oeste 7.6 km/h 13.7 km/h 60% 0.0 mm
12:24 17.3 °C 9.4 °C 1011.2 hPa OSO 7.6 km/h 14.5 km/h 60% 0.0 mm
12:29 17.4 °C 9.4 °C 1010.9 hPa SO 7.6 km/h 11.1 km/h 59.3% 0.0 mm
12:34 17.6 °C 9.4 °C 1010.9 hPa SO 5.7 km/h 11.3 km/h 58.5% 0.0 mm
12:39 17.8 °C 9.4 °C 1010.9 hPa Oeste 5 km/h 9.7 km/h 58% 0.0 mm
12:44 18.1 °C 9.4 °C 1010.5 hPa ONO 3.5 km/h 11.1 km/h 56.7% 0.0 mm
12:49 18.2 °C 9.3 °C 1010.5 hPa North 2.9 km/h 16.4 km/h 56% 0.0 mm
12:54 18.4 °C 9.2 °C 1010.5 hPa ONO 5.8 km/h 18 km/h 55% 0.0 mm
12:59 18.5 °C 9.1 °C 1010.2 hPa ONO 6.9 km/h 17.7 km/h 54.4% 0.0 mm
13:04 18.4 °C 9 °C 1010.2 hPa NO 8.2 km/h 15.6 km/h 54% 0.0 mm
13:09 18.5 °C 9 °C 1010.2 hPa ONO 8.7 km/h 19 km/h 54% 0.0 mm
13:14 18.5 °C 9 °C 1010.0 hPa Oeste 8.5 km/h 19.3 km/h 54% 0.0 mm
13:19 18.7 °C 9.1 °C 1010.0 hPa NO 8.4 km/h 16.7 km/h 53.7% 0.0 mm
13:24 18.8 °C 9 °C 1010.0 hPa NO 7.3 km/h 16.7 km/h 53.3% 0.0 mm
13:29 18.8 °C 8.9 °C 1009.8 hPa ONO 6.9 km/h 16.7 km/h 52.7% 0.0 mm
13:34 18.8 °C 9 °C 1009.8 hPa NO 6.9 km/h 14.5 km/h 53% 0.0 mm
13:39 18.9 °C 8.9 °C 1009.8 hPa NNO 6.9 km/h 13 km/h 52.3% 0.0 mm
13:44 19 °C 8.9 °C 1009.6 hPa Oeste 5.5 km/h 16.4 km/h 51.9% 0.0 mm
13:49 18.9 °C 8.7 °C 1009.6 hPa Oeste 5 km/h 17.2 km/h 51.4% 0.0 mm
13:54 19 °C 8.8 °C 1009.6 hPa NO 7.4 km/h 17.7 km/h 51.7% 0.0 mm
13:59 19.1 °C 8.7 °C 1009.4 hPa NNO 8.4 km/h 14.8 km/h 51% 0.0 mm
14:04 19.1 °C 8.7 °C 1009.4 hPa NNO 7.3 km/h 14.5 km/h 51% 0.0 mm
14:09 19.3 °C 8.7 °C 1009.4 hPa NO 6.9 km/h 11.1 km/h 50.5% 0.0 mm
14:14 19.3 °C 8.6 °C 1009.3 hPa NNO 5.3 km/h 13 km/h 50% 0.0 mm
14:19 19.3 °C 8.6 °C 1009.3 hPa NO 4.7 km/h 15.6 km/h 49.9% 0.0 mm
14:24 19.3 °C 8.6 °C 1009.3 hPa ENE 6.3 km/h 16.1 km/h 50% 0.0 mm
14:29 19.4 °C 8.6 °C 1008.9 hPa NE 6.9 km/h 8.7 km/h 49.5% 0.0 mm
14:34 19.4 °C 8.5 °C 1008.9 hPa North 5.3 km/h 15.6 km/h 49.4% 0.0 mm
14:39 19.4 °C 8.4 °C 1008.9 hPa NO 4.7 km/h 16.1 km/h 49% 0.0 mm
14:44 19.5 °C 8.5 °C 1008.7 hPa Oeste 4.7 km/h 14.8 km/h 49% 0.0 mm
14:49 19.5 °C 8.5 °C 1008.7 hPa ONO 4.7 km/h 14.5 km/h 48.8% 0.0 mm
14:54 19.6 °C 8.3 °C 1008.7 hPa NO 5.9 km/h 12.9 km/h 48% 0.0 mm
14:59 19.7 °C 8.4 °C 1008.6 hPa SO 6.5 km/h 9.5 km/h 48% 0.0 mm
15:04 19.8 °C 8.4 °C 1008.6 hPa OSO 5.1 km/h 9.7 km/h 48% 0.0 mm
15:09 19.9 °C 8.5 °C 1008.6 hPa NE 4.7 km/h 9.5 km/h 47.6% 0.0 mm
15:14 19.9 °C 8.7 °C 1008.5 hPa North 4.1 km/h 10 km/h 48.4% 0.0 mm
15:19 19.9 °C 8.8 °C 1008.5 hPa NE 3.9 km/h 11.1 km/h 48.7% 0.0 mm
15:24 19.8 °C 8.5 °C 1008.5 hPa ENE 5.2 km/h 11.3 km/h 48% 0.0 mm
15:29 19.8 °C 8.5 °C 1008.4 hPa SSE 5.8 km/h 9.7 km/h 48% 0.0 mm
15:34 20 °C 8.6 °C 1008.4 hPa SSE 3.9 km/h 7.6 km/h 47.8% 0.0 mm
15:39 20 °C 8.6 °C 1008.4 hPa NE 3.2 km/h 8.4 km/h 47.7% 0.0 mm
15:44 19.9 °C 8.6 °C 1008.4 hPa NNO 4.5 km/h 8.4 km/h 48% 0.0 mm
15:49 19.9 °C 8.6 °C 1008.4 hPa NNE 5 km/h 8.4 km/h 48% 0.0 mm
15:54 19.9 °C 8.8 °C 1008.4 hPa Este 4.2 km/h 8.7 km/h 48.7% 0.0 mm
15:59 19.9 °C 9 °C 1008.4 hPa Este 3.9 km/h 13.7 km/h 49.4% 0.0 mm
16:04 19.9 °C 9 °C 1008.4 hPa Este 5.3 km/h 14.8 km/h 49.5% 0.0 mm
16:09 19.7 °C 9 °C 1008.4 hPa Este 5.8 km/h 14.5 km/h 49.9% 0.0 mm
16:14 19.6 °C 8.9 °C 1008.3 hPa ENE 7.7 km/h 12.9 km/h 50% 0.0 mm
16:19 19.6 °C 8.8 °C 1008.3 hPa ENE 8.4 km/h 10 km/h 49.8% 0.0 mm
16:24 19.6 °C 8.7 °C 1008.3 hPa Este 6 km/h 9.7 km/h 49.3% 0.0 mm
16:29 19.7 °C 8.8 °C 1008.2 hPa ENE 5 km/h 8.4 km/h 49.5% 0.0 mm
16:34 19.7 °C 8.8 °C 1008.2 hPa ENE 3.7 km/h 8 km/h 49.5% 0.0 mm
16:39 19.6 °C 8.9 °C 1008.2 hPa NE 3.2 km/h 8.4 km/h 50% 0.0 mm
16:44 19.5 °C 8.8 °C 1008.1 hPa NNE 4.3 km/h 9.3 km/h 50% 0.0 mm
16:49 19.4 °C 8.7 °C 1008.1 hPa NNE 4.7 km/h 9.7 km/h 50% 0.0 mm
16:54 19.3 °C 8.7 °C 1008.1 hPa NE 4.8 km/h 8.4 km/h 50% 0.0 mm
16:59 19.3 °C 8.7 °C 1008.1 hPa NE 5 km/h 8 km/h 50.4% 0.0 mm
17:04 19.3 °C 8.9 °C 1008.1 hPa NE 5 km/h 11.9 km/h 51.1% 0.0 mm
17:09 19.2 °C 9.1 °C 1008.2 hPa Este 5 km/h 11.3 km/h 52.1% 0.0 mm
17:14 19.2 °C 9.6 °C 1008.2 hPa SE 5.6 km/h 11.3 km/h 53.8% 0.0 mm
17:19 19 °C 9.8 °C 1008.2 hPa SE 5.8 km/h 11.3 km/h 55.3% 0.0 mm
17:24 18.8 °C 10.2 °C 1008.3 hPa ESE 5.2 km/h 11.9 km/h 57.2% 0.0 mm
17:29 18.5 °C 10.3 °C 1008.3 hPa ESE 5 km/h 11.3 km/h 58.7% 0.0 mm
17:34 18.3 °C 10.3 °C 1008.3 hPa ESE 6 km/h 10 km/h 59.8% 0.0 mm
17:39 18.2 °C 10.4 °C 1008.3 hPa ESE 6.5 km/h 9.7 km/h 60.7% 0.0 mm
17:44 18 °C 10.4 °C 1008.3 hPa Este 6 km/h 11.9 km/h 61.1% 0.0 mm
17:49 17.8 °C 10.4 °C 1008.3 hPa ENE 5.8 km/h 11.3 km/h 62% 0.0 mm
17:54 17.6 °C 10.4 °C 1008.3 hPa Este 6.2 km/h 11.3 km/h 62.9% 0.0 mm
17:59 17.5 °C 10.4 °C 1008.3 hPa ESE 6.5 km/h 11.1 km/h 63% 0.0 mm
18:04 17.4 °C 10.3 °C 1008.3 hPa ESE 6.5 km/h 14.8 km/h 63% 0.0 mm
18:09 17.2 °C 10.2 °C 1008.3 hPa ESE 6.5 km/h 18.3 km/h 63.6% 0.0 mm
18:14 17 °C 10.2 °C 1008.2 hPa ESE 9.3 km/h 19.3 km/h 64.3% 0.0 mm
18:19 16.8 °C 10.1 °C 1008.2 hPa ESE 10.3 km/h 14.8 km/h 65% 0.0 mm
18:24 16.7 °C 10.1 °C 1008.2 hPa ESE 9.7 km/h 12.9 km/h 65% 0.0 mm
18:29 16.6 °C 10 °C 1008.0 hPa ESE 7.6 km/h 11.3 km/h 65% 0.0 mm
18:34 16.4 °C 9.9 °C 1008.0 hPa ENE 7.6 km/h 11.3 km/h 65.2% 0.0 mm
18:39 16.3 °C 10 °C 1008.2 hPa NNE 7.6 km/h 14.8 km/h 66.4% 0.0 mm
18:44 16.1 °C 10 °C 1008.2 hPa NNE 8.4 km/h 16.7 km/h 67.4% 0.0 mm
18:49 16 °C 10.2 °C 1008.2 hPa NNE 8.7 km/h 16.4 km/h 68.4% 0.0 mm
18:54 15.7 °C 10.6 °C 1008.4 hPa NNE 8.7 km/h 20.4 km/h 71.6% 0.0 mm
18:59 15.3 °C 11 °C 1008.4 hPa NNE 8.7 km/h 20.9 km/h 75.6% 0.0 mm
19:04 15 °C 11.3 °C 1008.4 hPa NE 11.4 km/h 20.9 km/h 78.8% 0.0 mm
19:09 14.8 °C 11.5 °C 1008.6 hPa NE 12.2 km/h 25.9 km/h 80.9% 0.0 mm
19:14 14.6 °C 11.7 °C 1008.6 hPa NE 12.8 km/h 25.7 km/h 82.5% 0.0 mm
19:19 14.5 °C 11.7 °C 1008.6 hPa NE 13 km/h 24.5 km/h 83.6% 0.0 mm
19:24 14.4 °C 11.8 °C 1008.6 hPa NE 13.5 km/h 25.9 km/h 84.5% 0.0 mm
19:29 14.3 °C 11.8 °C 1008.6 hPa NE 13.7 km/h 26.2 km/h 85% 0.0 mm
19:34 14.2 °C 11.9 °C 1008.6 hPa NE 15.4 km/h 25.7 km/h 85.9% 0.0 mm
19:39 14.1 °C 11.8 °C 1008.8 hPa NE 16.1 km/h 20.9 km/h 86% 0.0 mm
19:44 13.9 °C 11.6 °C 1008.8 hPa NE 12.6 km/h 19.3 km/h 86% 0.0 mm
19:49 13.8 °C 11.6 °C 1008.8 hPa NE 11.1 km/h 17.7 km/h 86.5% 0.0 mm
19:54 13.8 °C 11.7 °C 1009.1 hPa NNE 10.5 km/h 16.1 km/h 87% 0.0 mm
19:59 13.7 °C 11.6 °C 1009.1 hPa NE 10.3 km/h 16.7 km/h 87% 0.0 mm
20:04 13.7 °C 11.6 °C 1009.1 hPa NE 10.1 km/h 16.1 km/h 87.6% 0.0 mm
20:09 13.6 °C 11.7 °C 1009.2 hPa NE 10 km/h 16.1 km/h 88% 0.0 mm
20:14 13.6 °C 11.7 °C 1009.2 hPa NE 10 km/h 16.7 km/h 88% 0.0 mm
20:19 13.6 °C 11.7 °C 1009.2 hPa NE 10 km/h 16.7 km/h 88% 0.0 mm
20:24 13.6 °C 11.7 °C 1009.2 hPa NNE 10 km/h 16.1 km/h 88% 0.0 mm
20:29 13.6 °C 11.7 °C 1009.2 hPa NNE 10 km/h 16.1 km/h 88% 0.0 mm
20:34 13.6 °C 11.7 °C 1009.2 hPa NNE 9 km/h 16.1 km/h 88% 0.0 mm
20:39 13.6 °C 11.8 °C 1009.4 hPa NE 8.7 km/h 17.2 km/h 88.6% 0.0 mm
20:44 13.6 °C 11.8 °C 1009.4 hPa NE 9.8 km/h 17.7 km/h 89% 0.0 mm
20:49 13.7 °C 11.9 °C 1009.4 hPa NE 10.3 km/h 16.7 km/h 89% 0.0 mm
20:54 13.7 °C 11.8 °C 1009.4 hPa NE 10.3 km/h 16.4 km/h 88.4% 0.0 mm
20:59 13.7 °C 11.7 °C 1009.2 hPa NE 10.3 km/h 16.7 km/h 88% 0.0 mm
21:04 13.7 °C 11.7 °C 1009.2 hPa NE 10.1 km/h 16.1 km/h 88% 0.0 mm
21:09 13.7 °C 11.7 °C 1009.3 hPa NE 10 km/h 16.1 km/h 88% 0.0 mm
21:14 13.7 °C 11.7 °C 1009.3 hPa NE 9.6 km/h 14.5 km/h 88% 0.0 mm
21:19 13.7 °C 11.8 °C 1009.3 hPa NE 9.5 km/h 14.8 km/h 88.5% 0.0 mm
21:24 13.6 °C 11.8 °C 1009.4 hPa NE 8.9 km/h 14.5 km/h 89% 0.0 mm
21:29 13.5 °C 11.7 °C 1009.4 hPa NE 8.7 km/h 13 km/h 89% 0.0 mm
21:34 13.5 °C 11.7 °C 1009.4 hPa NE 8.7 km/h 12.9 km/h 89% 0.0 mm
21:39 13.5 °C 11.7 °C 1009.4 hPa NE 8.7 km/h 11.3 km/h 89% 0.0 mm
21:44 13.4 °C 11.7 °C 1009.3 hPa NE 7.9 km/h 11.3 km/h 89.5% 0.0 mm
21:49 13.4 °C 11.8 °C 1009.3 hPa NE 7.6 km/h 11.3 km/h 90% 0.0 mm
21:54 13.4 °C 11.7 °C 1009.3 hPa NNE 6.8 km/h 8 km/h 89.7% 0.0 mm
21:59 13.4 °C 11.7 °C 1009.2 hPa NNE 6.5 km/h 8 km/h 89.5% 0.0 mm
22:04 13.4 °C 11.8 °C 1009.2 hPa NNE 4.5 km/h 6.4 km/h 90% 0.0 mm
22:09 13.4 °C 11.8 °C 1009.3 hPa NNE 3.9 km/h 7.4 km/h 90% 0.0 mm
22:14 13.4 °C 11.8 °C 1009.3 hPa NNE 3.2 km/h 8.4 km/h 90% 0.0 mm
22:19 13.4 °C 11.8 °C 1009.3 hPa Este 2.9 km/h 8.4 km/h 90% 0.0 mm
22:24 13.4 °C 11.8 °C 1009.4 hPa ESE 4.4 km/h 8.4 km/h 89.7% 0.0 mm
22:29 13.5 °C 11.7 °C 1009.4 hPa Este 5 km/h 8 km/h 89% 0.0 mm
22:34 13.5 °C 11.6 °C 1009.4 hPa ENE 5 km/h 11.1 km/h 88.2% 0.0 mm
22:39 13.5 °C 11.5 °C 1009.4 hPa ENE 5 km/h 11.3 km/h 87.4% 0.0 mm
22:44 13.6 °C 11.4 °C 1009.3 hPa Este 5.6 km/h 11.9 km/h 86.8% 0.0 mm
22:49 13.6 °C 11.3 °C 1009.3 hPa ENE 5.8 km/h 11.3 km/h 86% 0.0 mm
22:54 13.6 °C 11.2 °C 1009.4 hPa ENE 6.2 km/h 11.1 km/h 85.5% 0.0 mm
22:59 13.5 °C 11 °C 1009.4 hPa ENE 6.5 km/h 11.3 km/h 85% 0.0 mm
23:04 13.5 °C 11 °C 1009.4 hPa ENE 6.5 km/h 11.1 km/h 85% 0.0 mm
23:09 13.4 °C 11 °C 1009.4 hPa NE 6.5 km/h 13 km/h 85% 0.0 mm
23:14 13.4 °C 10.9 °C 1009.1 hPa NE 6.8 km/h 13 km/h 85% 0.0 mm
23:19 13.3 °C 10.9 °C 1009.1 hPa NE 6.9 km/h 14.8 km/h 85% 0.0 mm
23:24 13.3 °C 10.8 °C 1009.1 hPa NE 7.4 km/h 14.5 km/h 85% 0.0 mm
23:29 13.2 °C 10.8 °C 1009.0 hPa NE 7.6 km/h 11.3 km/h 85% 0.0 mm
23:34 13.2 °C 10.7 °C 1009.0 hPa NNE 6.8 km/h 11.3 km/h 85% 0.0 mm
23:39 13.1 °C 10.6 °C 1009.0 hPa NNE 6.5 km/h 11.3 km/h 85% 0.0 mm
23:44 13 °C 10.6 °C 1009.0 hPa NE 5.4 km/h 9.5 km/h 85.1% 0.0 mm
23:49 12.9 °C 10.6 °C 1009.0 hPa NNE 5 km/h 13 km/h 86% 0.0 mm
23:54 12.9 °C 10.6 °C 1009.0 hPa NNE 6.4 km/h 13.7 km/h 86% 0.0 mm
23:59 12.9 °C 10.5 °C 1008.9 hPa NE 6.9 km/h 14.5 km/h 85.4% 0.0 mm
Murcia-Puente Tocinos, España
Compliments of Weather Underground - 3 mb

La estación de MeteoMurcia.com, publica sus datos en los siguientes proyectos:

Weather Underground PWS IMURCIAP2 Meteoclimatic www.awekas.at

W3Counter
Web Analytics